Time;durP1;ratioP1;P1;durP2;ratioP2;P2;SDS_P1;SDS_P2;PMS_P1;PMS_P2;Temp;Humidity;BMP_temperature;BMP_pressure;BME280_temperature;BME280_humidity;BME280_pressure;Samples;Min_cycle;Max_cycle;Signal;HPM_P1;HPM_P2
2022/12/30 00:01:15;;;;;;;3.83;1.65;;;;;;;7.64;nan;100341.59;4984191;28;20065;-85
2022/12/30 00:03:40;;;;;;;7.13;2.10;;;;;;;7.61;nan;100334.00;4985086;28;20034;-85
2022/12/30 00:06:14;;;;;;;6.18;2.00;;;;;;;7.60;nan;100330.53;4985968;28;20575;-85
2022/12/30 00:08:45;;;;;;;5.78;2.17;;;;;;;7.56;nan;100330.94;4969953;28;20035;-85
2022/12/30 00:11:12;;;;;;;3.40;1.90;;;;;;;7.56;nan;100330.94;4987656;28;20041;-86
2022/12/30 00:33:20;;;;;;;5.53;2.05;;;;;;;7.56;nan;100329.13;4982506;28;20042;-86
2022/12/30 00:35:45;;;;;;;6.10;2.17;;;;;;;7.57;nan;100324.69;4980924;28;20035;-87
2022/12/30 00:38:10;;;;;;;7.43;2.45;;;;;;;7.52;nan;100325.13;4982194;28;20101;-86
2022/12/30 00:40:35;;;;;;;4.88;2.00;;;;;;;7.47;nan;100329.97;4981367;28;20031;-86
2022/12/30 00:43:10;;;;;;;5.10;2.03;;;;;;;7.44;nan;100332.88;4980812;28;20035;-85
2022/12/30 00:45:38;;;;;;;4.85;2.15;;;;;;;7.40;nan;100340.19;4980475;28;20035;-86
2022/12/30 00:56:17;;;;;;;6.95;1.85;;;;;;;7.28;nan;100348.34;4982885;28;20053;-86
2022/12/30 00:58:42;;;;;;;5.40;2.00;;;;;;;7.23;nan;100341.69;4978686;28;20035;-85
2022/12/30 01:01:08;;;;;;;4.40;1.98;;;;;;;7.18;nan;100349.16;4976554;28;20042;-85
2022/12/30 01:03:33;;;;;;;5.35;2.20;;;;;;;7.14;nan;100350.38;4976073;28;20117;-85
2022/12/30 01:06:04;;;;;;;5.93;2.20;;;;;;;7.11;nan;100348.00;4974309;28;20035;-85
2022/12/30 01:08:31;;;;;;;4.13;1.90;;;;;;;7.05;nan;100355.59;4980256;28;20039;-86
2022/12/30 01:10:56;;;;;;;6.22;1.92;;;;;;;6.97;nan;100351.00;4982825;28;20252;-85
2022/12/30 01:13:21;;;;;;;5.47;1.88;;;;;;;6.93;nan;100360.13;4980800;28;20047;-86
2022/12/30 01:15:46;;;;;;;5.07;1.92;;;;;;;6.88;nan;100378.09;4979878;28;20540;-86
2022/12/30 01:18:12;;;;;;;5.45;1.85;;;;;;;6.83;nan;100375.84;4979268;28;20043;-86
2022/12/30 01:20:37;;;;;;;5.20;1.90;;;;;;;6.78;nan;100381.50;4983173;28;20035;-85
2022/12/30 01:23:02;;;;;;;7.60;2.10;;;;;;;6.75;nan;100386.19;4983983;28;20055;-86
2022/12/30 01:25:27;;;;;;;4.57;1.77;;;;;;;6.71;nan;100397.91;4982215;28;20034;-85
2022/12/30 01:27:53;;;;;;;6.85;1.80;;;;;;;6.70;nan;100409.41;4983485;28;20046;-86
2022/12/30 01:30:18;;;;;;;5.82;1.90;;;;;;;6.71;nan;100411.88;4979640;28;20039;-85
2022/12/30 01:32:43;;;;;;;5.97;2.17;;;;;;;6.80;nan;100412.91;4984437;28;20038;-85
2022/12/30 01:35:10;;;;;;;6.35;2.03;;;;;;;6.81;nan;100410.13;4983304;28;20046;-85
2022/12/30 01:37:36;;;;;;;4.30;1.75;;;;;;;6.81;nan;100406.69;4982505;28;20035;-85
2022/12/30 01:40:01;;;;;;;7.60;2.33;;;;;;;6.80;nan;100419.00;4983832;28;21837;-85
2022/12/30 01:42:29;;;;;;;7.03;1.95;;;;;;;6.78;nan;100426.16;4980778;28;20054;-85
2022/12/30 01:45:17;;;;;;;5.70;1.75;;;;;;;6.73;nan;100436.25;4982250;28;20046;-85
2022/12/30 01:47:53;;;;;;;4.30;1.75;;;;;;;6.66;nan;100421.13;4980715;28;20039;-85
2022/12/30 01:50:25;;;;;;;7.40;2.10;;;;;;;6.59;nan;100420.81;4979792;28;20038;-85
2022/12/30 01:53:04;;;;;;;3.47;1.55;;;;;;;6.50;nan;100427.66;4981403;28;20106;-85
2022/12/30 01:55:35;;;;;;;3.92;1.70;;;;;;;6.44;nan;100430.81;4980783;28;20034;-85
2022/12/30 01:58:04;;;;;;;5.90;2.30;;;;;;;6.37;nan;100434.91;4982343;28;20039;-85
2022/12/30 02:00:30;;;;;;;5.80;2.00;;;;;;;6.31;nan;100430.13;4981320;28;20046;-85
2022/12/30 02:02:56;;;;;;;5.50;1.75;;;;;;;6.25;nan;100430.66;4982642;28;20030;-86
2022/12/30 02:05:24;;;;;;;4.88;1.70;;;;;;;6.20;nan;100431.03;4980056;28;20094;-86
2022/12/30 02:07:59;;;;;;;4.85;1.95;;;;;;;6.19;nan;100434.59;4977498;28;20034;-85
2022/12/30 02:10:25;;;;;;;5.95;2.10;;;;;;;6.19;nan;100434.59;4977139;28;20050;-87
2022/12/30 02:12:50;;;;;;;7.68;2.05;;;;;;;6.23;nan;100432.56;4978342;28;20039;-86
2022/12/30 02:15:15;;;;;;;6.47;2.17;;;;;;;6.23;nan;100429.94;4976109;28;20036;-87
2022/12/30 02:17:57;;;;;;;8.32;2.10;;;;;;;6.27;nan;100436.59;4976749;28;20042;-86
2022/12/30 02:20:32;;;;;;;;;;;;;;;6.28;nan;100443.53;4976275;28;20030;-87
2022/12/30 02:23:29;;;;;;;6.30;1.58;;;;;;;6.30;nan;100452.13;4988905;28;19933;-86
2022/12/30 02:26:31;;;;;;;6.78;1.92;;;;;;;6.34;nan;100456.13;4977844;28;20038;-85
2022/12/30 02:29:41;;;;;;;5.15;1.73;;;;;;;6.36;nan;100459.47;4977247;28;20054;-85
2022/12/30 02:32:21;;;;;;;5.68;1.92;;;;;;;6.36;nan;100460.34;4978604;28;20035;-85
2022/12/30 02:34:56;;;;;;;6.28;1.95;;;;;;;6.38;nan;100465.44;4976868;28;20066;-84
2022/12/30 02:37:33;;;;;;;12.25;2.10;;;;;;;6.41;nan;100474.84;4972205;28;20082;-86
2022/12/30 02:40:24;;;;;;;5.95;1.48;;;;;;;6.37;nan;100474.28;4968987;28;20062;-85
2022/12/30 02:45:50;;;;;;;8.52;2.13;;;;;;;6.43;nan;100467.69;4978587;28;20045;-85
2022/12/30 02:48:18;;;;;;;9.13;1.95;;;;;;;6.43;nan;100473.78;4975740;28;20067;-85
2022/12/30 02:53:33;;;;;;;6.38;1.75;;;;;;;6.34;nan;100474.53;4975254;28;20771;-85
2022/12/30 02:55:58;;;;;;;9.63;2.05;;;;;;;6.31;nan;100478.25;4974685;28;20070;-85
2022/12/30 02:58:27;;;;;;;5.95;1.90;;;;;;;6.26;nan;100485.66;4965385;28;20035;-86
2022/12/30 03:04:06;;;;;;;8.70;1.80;;;;;;;6.16;nan;100467.19;4975331;28;20070;-86
2022/12/30 03:07:00;;;;;;;5.43;1.67;;;;;;;6.12;nan;100451.81;4970503;28;20086;-86
2022/12/30 03:11:12;;;;;;;7.72;1.88;;;;;;;6.11;nan;100448.38;4977408;28;20066;-86
2022/12/30 03:13:07;;;;;;;5.22;2.05;;;;;;;6.09;nan;100436.31;4974780;28;20122;-87
2022/12/30 03:15:42;;;;;;;9.07;2.13;;;;;;;6.10;nan;100440.59;4978731;28;20035;-86
2022/12/30 03:18:09;;;;;;;7.47;2.33;;;;;;;6.10;nan;100440.59;4987145;28;20527;-87
2022/12/30 03:20:38;;;;;;;9.93;2.42;;;;;;;6.13;nan;100435.13;4969902;28;20400;-86
2022/12/30 03:28:50;;;;;;;6.60;1.80;;;;;;;6.15;nan;100457.66;4992118;28;20125;-87
2022/12/30 03:31:16;;;;;;;8.15;1.92;;;;;;;6.23;nan;100462.28;4973585;28;20039;-87
2022/12/30 03:33:42;;;;;;;4.07;1.70;;;;;;;6.36;nan;100467.34;4976851;28;20035;-87
2022/12/30 03:36:21;;;;;;;8.45;2.00;;;;;;;6.47;nan;100462.06;4968097;28;20042;-86
2022/12/30 03:38:55;;;;;;;7.78;2.00;;;;;;;6.56;nan;100463.94;4974453;28;20049;-86
2022/12/30 03:41:22;;;;;;;5.90;1.95;;;;;;;6.65;nan;100464.97;4967341;28;20039;-86
2022/12/30 03:43:49;;;;;;;5.32;1.95;;;;;;;6.67;nan;100472.69;4972689;28;20065;-86
2022/12/30 03:46:14;;;;;;;5.93;1.80;;;;;;;6.72;nan;100473.16;4972706;28;20082;-86
2022/12/30 03:48:40;;;;;;;7.03;1.90;;;;;;;6.70;nan;100475.94;4975476;28;20046;-86
2022/12/30 03:51:05;;;;;;;5.38;1.98;;;;;;;6.61;nan;100475.84;4977892;28;20043;-87
2022/12/30 03:53:30;;;;;;;4.32;1.95;;;;;;;6.52;nan;100486.16;4968815;28;20630;-86
2022/12/30 03:55:55;;;;;;;4.53;1.60;;;;;;;6.43;nan;100484.28;4969786;28;20041;-87
2022/12/30 03:58:21;;;;;;;5.10;1.73;;;;;;;6.38;nan;100483.81;4980535;28;21026;-87
2022/12/30 04:00:46;;;;;;;6.13;1.70;;;;;;;6.32;nan;100482.53;4981047;28;20042;-86
2022/12/30 04:03:13;;;;;;;5.95;1.77;;;;;;;6.34;nan;100478.00;4978758;28;20035;-87
2022/12/30 04:05:38;;;;;;;6.70;2.00;;;;;;;6.31;nan;100474.78;4971556;28;20118;-86
2022/12/30 04:08:04;;;;;;;5.35;2.08;;;;;;;6.30;nan;100470.50;4979171;28;20370;-86
2022/12/30 04:10:29;;;;;;;9.35;2.20;;;;;;;6.31;nan;100466.91;4979063;28;20050;-88
2022/12/30 04:12:54;;;;;;;7.88;2.85;;;;;;;6.27;nan;100465.47;4978787;28;20046;-85
2022/12/30 04:15:20;;;;;;;10.32;2.38;;;;;;;6.31;nan;100470.34;4979563;28;20538;-87
2022/12/30 04:17:45;;;;;;;4.97;2.08;;;;;;;6.31;nan;100466.91;4981443;28;20063;-87
2022/12/30 04:20:10;;;;;;;10.50;2.42;;;;;;;6.28;nan;100460.13;4979073;28;20062;-87
2022/12/30 04:22:36;;;;;;;6.88;2.22;;;;;;;6.31;nan;100453.78;4978078;28;20043;-86
2022/12/30 04:25:01;;;;;;;10.00;2.58;;;;;;;6.29;nan;100453.91;4979541;28;20042;-86
2022/12/30 04:27:26;;;;;;;10.60;2.83;;;;;;;6.30;nan;100444.25;4977380;28;20038;-86
2022/12/30 04:29:52;;;;;;;5.35;2.03;;;;;;;6.28;nan;100443.53;4978419;28;20050;-86
2022/12/30 04:32:17;;;;;;;8.18;2.88;;;;;;;6.30;nan;100446.88;4977793;28;20042;-87
2022/12/30 04:34:42;;;;;;;7.28;2.30;;;;;;;6.30;nan;100446.88;4977128;28;20416;-87
2022/12/30 04:37:07;;;;;;;7.88;2.20;;;;;;;6.37;nan;100455.91;4978974;28;20049;-87
2022/12/30 04:39:33;;;;;;;7.20;2.20;;;;;;;6.36;nan;100456.84;4971944;28;20046;-85
2022/12/30 04:41:58;;;;;;;8.32;2.28;;;;;;;6.32;nan;100463.34;4970784;28;20497;-85
2022/12/30 04:44:23;;;;;;;11.68;2.35;;;;;;;6.29;nan;100466.19;4968815;28;20114;-85
2022/12/30 04:46:48;;;;;;;9.82;2.10;;;;;;;6.30;nan;100460.81;4974279;28;20042;-85
2022/12/30 04:49:14;;;;;;;7.95;1.83;;;;;;;6.32;nan;100476.47;4985780;28;20497;-85
2022/12/30 04:51:39;;;;;;;6.00;2.45;;;;;;;6.30;nan;100473.13;4973609;28;20042;-85
2022/12/30 04:54:04;;;;;;;11.10;2.97;;;;;;;6.31;nan;100475.59;4972739;28;20112;-85
2022/12/30 04:56:30;;;;;;;6.95;1.90;;;;;;;6.29;nan;100474.06;4975553;28;20039;-86
2022/12/30 04:58:55;;;;;;;6.65;1.83;;;;;;;6.24;nan;100466.56;4984468;28;20118;-86
2022/12/30 05:01:21;;;;;;;5.75;2.15;;;;;;;6.19;nan;100476.63;4982053;28;20058;-86
2022/12/30 05:03:46;;;;;;;6.72;2.30;;;;;;;6.20;nan;100480.06;4981858;28;20066;-86
2022/12/30 05:06:11;;;;;;;8.52;2.13;;;;;;;6.20;nan;100480.06;4983374;28;20065;-87
2022/12/30 05:08:37;;;;;;;9.88;2.15;;;;;;;6.16;nan;100480.31;4984046;28;20035;-86
2022/12/30 05:11:02;;;;;;;5.72;1.90;;;;;;;6.14;nan;100468.28;4979674;28;20050;-85
2022/12/30 05:13:27;;;;;;;6.68;2.05;;;;;;;6.13;nan;100467.47;4977120;28;20146;-85
2022/12/30 05:15:52;;;;;;;6.30;1.70;;;;;;;6.11;nan;100472.00;4975981;28;20035;-85
2022/12/30 05:18:18;;;;;;;7.20;1.60;;;;;;;6.12;nan;100476.28;4976207;28;20405;-84
2022/12/30 05:20:43;;;;;;;6.03;2.03;;;;;;;6.11;nan;100464.13;4974705;28;20045;-85
2022/12/30 05:26:13;;;;;;;7.20;1.95;;;;;;;6.05;nan;100464.59;4976774;28;20054;-85
2022/12/30 05:28:37;;;;;;;4.35;1.90;;;;;;;5.98;nan;100471.31;4975958;28;20045;-86
2022/12/30 05:31:03;;;;;;;8.45;1.95;;;;;;;5.93;nan;100478.69;4981283;28;20035;-86
2022/12/30 05:33:28;;;;;;;6.20;2.00;;;;;;;5.90;nan;100479.78;4977121;28;20307;-86
2022/12/30 05:35:53;;;;;;;6.97;1.90;;;;;;;5.88;nan;100480.84;4975164;28;20531;-86
2022/12/30 05:38:18;;;;;;;3.78;1.70;;;;;;;5.82;nan;100484.81;4972209;28;20051;-85
2022/12/30 05:40:44;;;;;;;6.15;1.90;;;;;;;5.81;nan;100484.91;4970824;28;20055;-85
2022/12/30 05:43:12;;;;;;;8.27;2.15;;;;;;;5.78;nan;100474.69;4977163;28;20031;-85
2022/12/30 05:45:37;;;;;;;4.60;1.80;;;;;;;5.77;nan;100480.88;4973255;28;20053;-86
2022/12/30 05:48:02;;;;;;;7.05;1.92;;;;;;;5.75;nan;100486.25;4977853;28;20115;-86
2022/12/30 05:50:28;;;;;;;4.65;1.92;;;;;;;5.70;nan;100485.78;4975893;28;20049;-86
2022/12/30 05:52:53;;;;;;;6.68;2.00;;;;;;;5.66;nan;100487.81;4976948;28;20039;-85
2022/12/30 05:55:18;;;;;;;3.75;2.03;;;;;;;5.65;nan;100496.63;4972942;28;20087;-85
2022/12/30 05:57:44;;;;;;;7.40;2.40;;;;;;;5.62;nan;100494.22;4974171;28;20046;-86
2022/12/30 06:00:09;;;;;;;7.78;2.40;;;;;;;5.61;nan;100491.75;4973994;28;20053;-86
2022/12/30 06:02:35;;;;;;;8.82;2.40;;;;;;;5.63;nan;100492.47;4992333;28;20035;-86
2022/12/30 06:05:00;;;;;;;4.05;1.98;;;;;;;5.63;nan;100495.91;4968968;28;20070;-86
2022/12/30 06:07:25;;;;;;;5.18;2.42;;;;;;;5.65;nan;100493.16;4990455;28;20097;-86
2022/12/30 06:09:51;;;;;;;4.82;2.47;;;;;;;5.65;nan;100493.16;4974903;28;20053;-86
2022/12/30 06:12:16;;;;;;;4.75;2.50;;;;;;;5.64;nan;100500.19;4973500;28;20030;-86
2022/12/30 06:14:41;;;;;;;4.35;2.00;;;;;;;5.60;nan;100496.16;4975339;28;20054;-86
2022/12/30 06:17:07;;;;;;;4.72;2.50;;;;;;;5.61;nan;100502.25;4967509;28;20062;-86
2022/12/30 06:19:32;;;;;;;5.72;2.33;;;;;;;5.58;nan;100513.81;4990022;28;20657;-86
2022/12/30 06:21:57;;;;;;;6.65;2.90;;;;;;;5.61;nan;100520.59;4971463;28;20212;-86
2022/12/30 06:24:23;;;;;;;6.25;2.38;;;;;;;5.63;nan;100513.47;4974275;28;20040;-86
2022/12/30 06:26:48;;;;;;;5.95;2.40;;;;;;;5.63;nan;100513.47;4979713;28;20030;-87
2022/12/30 06:29:13;;;;;;;5.93;2.42;;;;;;;5.60;nan;100517.16;4972379;28;20066;-86
2022/12/30 06:31:38;;;;;;;6.85;3.03;;;;;;;5.65;nan;100509.75;4974491;28;20081;-86
2022/12/30 06:34:04;;;;;;;5.60;2.80;;;;;;;5.64;nan;100502.81;4976567;28;20539;-85
2022/12/30 06:36:29;;;;;;;6.40;2.72;;;;;;;5.66;nan;100500.91;4971704;28;20105;-86
2022/12/30 06:38:54;;;;;;;5.13;3.00;;;;;;;5.71;nan;100498.75;4971002;28;20046;-86
2022/12/30 06:41:20;;;;;;;5.75;2.80;;;;;;;5.75;nan;100487.06;4975578;28;20049;-86
2022/12/30 06:43:45;;;;;;;5.22;2.80;;;;;;;5.79;nan;100490.28;4978733;28;20046;-88
2022/12/30 06:46:10;;;;;;;6.85;2.78;;;;;;;5.79;nan;100492.06;4977639;28;20042;-87
2022/12/30 06:48:35;;;;;;;8.45;3.03;;;;;;;5.75;nan;100489.69;4977967;28;20038;-86
2022/12/30 06:51:01;;;;;;;5.15;2.53;;;;;;;5.74;nan;100490.66;4974606;28;20512;-86
2022/12/30 06:53:27;;;;;;;7.47;3.00;;;;;;;5.74;nan;100488.03;4974193;28;20039;-87
2022/12/30 06:55:53;;;;;;;4.85;2.78;;;;;;;5.76;nan;100493.16;4971548;28;20659;-86
2022/12/30 06:58:18;;;;;;;5.72;3.22;;;;;;;5.79;nan;100484.19;4969376;28;20039;-86
2022/12/30 07:00:43;;;;;;;6.18;3.28;;;;;;;5.78;nan;100478.13;4972911;28;20070;-86
2022/12/30 07:03:11;;;;;;;6.82;3.83;;;;;;;5.81;nan;100472.63;4967814;28;20030;-86
2022/12/30 07:05:36;;;;;;;6.38;3.40;;;;;;;5.79;nan;100482.41;4975690;28;20051;-86
2022/12/30 07:08:02;;;;;;;7.22;3.40;;;;;;;5.81;nan;100490.16;4971001;28;20393;-86
2022/12/30 07:10:27;;;;;;;5.07;3.42;;;;;;;5.85;nan;100491.59;4976816;28;20035;-86
2022/12/30 07:12:52;;;;;;;4.70;3.15;;;;;;;5.90;nan;100490.25;4981169;28;20039;-87
2022/12/30 07:15:18;;;;;;;7.85;3.42;;;;;;;5.96;nan;100496.88;4976994;28;20081;-86
2022/12/30 07:17:43;;;;;;;6.00;3.38;;;;;;;5.97;nan;100487.19;4977573;28;20042;-86
2022/12/30 07:20:12;;;;;;;7.13;3.70;;;;;;;5.97;nan;100493.28;4974829;28;20381;-86
2022/12/30 07:22:37;;;;;;;6.63;3.63;;;;;;;6.00;nan;100493.00;4976140;28;20077;-86
2022/12/30 07:25:03;;;;;;;6.70;3.90;;;;;;;6.06;nan;100496.97;4979670;28;20095;-86
2022/12/30 07:27:28;;;;;;;6.22;3.80;;;;;;;6.12;nan;100489.41;4975464;28;20110;-86
2022/12/30 07:29:53;;;;;;;4.70;3.30;;;;;;;6.16;nan;100482.94;4976757;28;20039;-85
2022/12/30 07:32:19;;;;;;;4.38;2.90;;;;;;;6.19;nan;100489.75;4969890;28;20058;-86
2022/12/30 07:34:45;;;;;;;6.70;3.35;;;;;;;6.21;nan;100489.63;4968584;28;20049;-86
2022/12/30 07:37:10;;;;;;;6.05;3.70;;;;;;;6.28;nan;100485.53;4972301;28;20047;-85
2022/12/30 07:39:35;;;;;;;6.50;3.38;;;;;;;6.33;nan;100472.88;4976223;28;20106;-87
2022/12/30 07:42:01;;;;;;;6.10;3.05;;;;;;;6.42;nan;100471.28;4973628;28;20043;-86
2022/12/30 07:44:26;;;;;;;4.95;2.60;;;;;;;6.51;nan;100470.53;4978719;28;20097;-86
2022/12/30 07:46:52;;;;;;;4.82;2.58;;;;;;;6.56;nan;100466.56;4979602;28;20069;-86
2022/12/30 07:49:17;;;;;;;4.22;2.58;;;;;;;6.61;nan;100460.09;4979421;28;20042;-86
2022/12/30 07:51:43;;;;;;;3.25;2.08;;;;;;;6.65;nan;100459.72;4981327;28;20109;-86
2022/12/30 07:54:09;;;;;;;4.18;2.20;;;;;;;6.66;nan;100464.00;4978777;28;20058;-86
2022/12/30 07:56:34;;;;;;;3.20;1.80;;;;;;;6.69;nan;100458.47;4983582;28;20098;-87
2022/12/30 07:59:02;;;;;;;2.85;1.42;;;;;;;6.69;nan;100458.47;4978939;28;20042;-87
2022/12/30 08:01:28;;;;;;;2.75;1.50;;;;;;;6.71;nan;100461.81;4980570;28;20117;-87
2022/12/30 08:03:53;;;;;;;2.90;1.35;;;;;;;6.78;nan;100470.84;4979288;28;20475;-86
2022/12/30 08:06:18;;;;;;;2.72;1.40;;;;;;;6.83;nan;100473.09;4978750;28;20043;-86
2022/12/30 08:08:45;;;;;;;3.47;1.40;;;;;;;6.86;nan;100472.00;4978099;28;20118;-86
2022/12/30 08:11:12;;;;;;;2.85;1.20;;;;;;;6.88;nan;100467.44;4981063;28;20042;-86
2022/12/30 08:13:40;;;;;;;2.58;1.13;;;;;;;6.90;nan;100461.09;4981113;28;20042;-86
2022/12/30 08:16:08;;;;;;;1.45;1.05;;;;;;;6.92;nan;100464.44;4980660;28;20039;-86
2022/12/30 08:18:33;;;;;;;3.40;1.30;;;;;;;6.94;nan;100451.16;4981312;28;20114;-86
2022/12/30 08:21:00;;;;;;;2.92;1.50;;;;;;;7.00;nan;100459.34;4983405;28;20061;-87
2022/12/30 08:23:26;;;;;;;3.50;1.20;;;;;;;7.07;nan;100448.31;4981040;28;20031;-86
2022/12/30 08:25:51;;;;;;;5.00;1.13;;;;;;;7.18;nan;100449.06;4980845;28;20133;-86
2022/12/30 08:28:16;;;;;;;2.60;1.30;;;;;;;7.27;nan;100441.34;4984258;28;20041;-86
2022/12/30 08:30:42;;;;;;;2.92;1.00;;;;;;;7.31;nan;100433.06;4987892;28;20038;-86
2022/12/30 08:33:07;;;;;;;1.55;0.98;;;;;;;7.36;nan;100427.41;4988265;28;20070;-86
2022/12/30 08:35:32;;;;;;;1.75;0.90;;;;;;;7.40;nan;100434.88;4981202;28;20058;-86
2022/12/30 08:37:58;;;;;;;2.53;1.13;;;;;;;7.45;nan;100423.97;4991310;28;20052;-87
2022/12/30 08:40:23;;;;;;;2.88;1.15;;;;;;;7.52;nan;100416.38;4997861;28;20253;-86
2022/12/30 08:42:48;;;;;;;2.53;1.10;;;;;;;7.58;nan;100415.81;4988150;28;20061;-87
2022/12/30 08:45:14;;;;;;;2.10;1.08;;;;;;;7.64;nan;100410.03;4979336;28;20047;-86
2022/12/30 08:47:39;;;;;;;2.15;1.00;;;;;;;7.70;nan;100401.59;4984293;28;20035;-86
2022/12/30 08:50:05;;;;;;;3.10;1.10;;;;;;;7.81;nan;100400.63;4983955;28;20266;-87
2022/12/30 08:52:30;;;;;;;3.95;1.20;;;;;;;7.90;nan;100391.09;4980375;28;20039;-86
2022/12/30 08:54:55;;;;;;;2.15;0.90;;;;;;;7.99;nan;100379.72;4971539;28;20105;-86
2022/12/30 08:57:21;;;;;;;2.33;1.00;;;;;;;8.06;nan;100381.66;4980073;28;20042;-86
2022/12/30 08:59:46;;;;;;;1.40;0.80;;;;;;;8.12;nan;100377.63;4973832;28;20034;-85
2022/12/30 09:02:13;;;;;;;1.50;0.63;;;;;;;8.19;nan;100376.09;4976764;28;20038;-86
2022/12/30 09:04:39;;;;;;;3.17;0.88;;;;;;;8.25;nan;100372.91;4975954;28;20130;-86
2022/12/30 09:07:04;;;;;;;1.73;0.75;;;;;;;8.32;nan;100372.34;4978003;28;20050;-86
2022/12/30 09:09:30;;;;;;;1.42;0.70;;;;;;;8.38;nan;100367.34;4976863;28;20043;-86
2022/12/30 09:11:55;;;;;;;1.88;0.90;;;;;;;8.45;nan;100371.09;4977844;28;20102;-87
2022/12/30 09:14:22;;;;;;;2.05;0.80;;;;;;;8.55;nan;100376.34;4977692;28;20047;-86
2022/12/30 09:16:48;;;;;;;1.52;0.85;;;;;;;8.60;nan;100366.22;4979808;28;20073;-86
2022/12/30 09:19:14;;;;;;;2.80;0.90;;;;;;;8.65;nan;100369.28;4982420;28;20035;-87
2022/12/30 09:21:39;;;;;;;2.72;0.85;;;;;;;8.73;nan;100367.72;4979860;28;20059;-86
2022/12/30 09:24:05;;;;;;;2.78;0.65;;;;;;;8.73;nan;100363.28;4984662;28;20058;-86
2022/12/30 09:26:31;;;;;;;2.55;0.88;;;;;;;8.82;nan;100362.41;4980402;28;20073;-86
2022/12/30 09:28:58;;;;;;;3.47;1.20;;;;;;;8.90;nan;100359.06;4977736;28;20810;-86
2022/12/30 09:31:24;;;;;;;3.08;1.00;;;;;;;8.91;nan;100360.69;4984671;28;20065;-87
2022/12/30 09:33:49;;;;;;;2.42;0.80;;;;;;;9.00;nan;100353.72;4972572;28;20062;-86
2022/12/30 09:36:15;;;;;;;2.10;0.90;;;;;;;8.99;nan;100344.16;4975907;28;20031;-86
2022/12/30 09:38:41;;;;;;;3.28;0.95;;;;;;;9.05;nan;100336.47;4980270;28;20074;-86
2022/12/30 09:44:40;;;;;;;1.92;0.90;;;;;;;9.08;nan;100330.09;4980142;28;20106;-87
2022/12/30 09:47:22;;;;;;;1.98;0.85;;;;;;;9.07;nan;100315.25;4980742;28;20039;-87
2022/12/30 09:49:54;;;;;;;1.77;0.70;;;;;;;9.09;nan;100305.38;4979933;28;20119;-87
2022/12/30 09:52:21;;;;;;;;;;;;;;;9.09;nan;100303.56;4984319;28;20042;-88
2022/12/30 09:54:56;;;;;;;3.35;1.00;;;;;;;9.10;nan;100296.47;4980578;28;19918;-86
2022/12/30 09:57:32;;;;;;;1.55;0.60;;;;;;;9.17;nan;100302.00;4983296;28;20061;-86
2022/12/30 10:00:07;;;;;;;2.05;0.80;;;;;;;9.21;nan;100298.09;4980126;28;20050;-86
2022/12/30 10:02:59;;;;;;;2.40;0.90;;;;;;;9.32;nan;100284.69;4976990;28;20222;-85
2022/12/30 10:05:36;;;;;;;2.85;0.93;;;;;;;9.34;nan;100278.28;4975372;28;20046;-87
2022/12/30 10:08:09;;;;;;;2.70;0.82;;;;;;;9.38;nan;100281.44;4983658;28;20042;-85
2022/12/30 10:10:43;;;;;;;2.97;0.90;;;;;;;9.41;nan;100278.50;4981835;28;20643;-86
2022/12/30 10:13:20;;;;;;;3.55;0.70;;;;;;;9.45;nan;100273.75;4982202;28;20046;-86
2022/12/30 10:16:08;;;;;;;3.22;0.80;;;;;;;9.52;nan;100270.34;4981843;28;20129;-86
2022/12/30 10:18:55;;;;;;;2.58;0.80;;;;;;;9.62;nan;100277.38;4982014;28;20046;-86
2022/12/30 10:21:40;;;;;;;2.80;0.70;;;;;;;9.66;nan;100265.53;4998613;28;20046;-85
2022/12/30 10:24:27;;;;;;;1.70;0.70;;;;;;;9.80;nan;100267.63;4981528;28;20046;-87
2022/12/30 10:26:57;;;;;;;3.30;1.13;;;;;;;9.74;nan;100265.59;4984344;28;20098;-86
2022/12/30 10:29:34;;;;;;;3.22;0.90;;;;;;;9.77;nan;100267.91;4980744;28;20037;-85
2022/12/30 10:32:19;;;;;;;2.65;0.80;;;;;;;9.83;nan;100267.31;4976973;28;20054;-87
2022/12/30 10:34:47;;;;;;;2.08;0.90;;;;;;;9.90;nan;100254.34;4977299;28;20594;-86
2022/12/30 10:37:39;;;;;;;1.58;0.70;;;;;;;9.94;nan;100253.88;4976783;28;20504;-86
2022/12/30 10:40:14;;;;;;;2.28;0.73;;;;;;;10.05;nan;100239.56;4990809;28;20069;-86
2022/12/30 10:43:06;;;;;;;1.35;0.60;;;;;;;10.19;nan;100236.34;4974941;28;20085;-86
2022/12/30 10:45:37;;;;;;;;;;;;;;;10.17;nan;100238.31;4976870;28;20090;-86
2022/12/30 10:48:14;;;;;;;4.05;0.88;;;;;;;10.24;nan;100227.97;4978843;28;19918;-86
2022/12/30 10:50:44;;;;;;;1.85;0.85;;;;;;;10.38;nan;100219.47;4975275;28;20281;-84
2022/12/30 10:53:18;;;;;;;1.77;0.82;;;;;;;10.45;nan;100208.28;4976592;28;20042;-84
2022/12/30 10:55:56;;;;;;;1.55;0.70;;;;;;;10.53;nan;100218.88;4980111;28;20041;-85
2022/12/30 10:58:40;;;;;;;2.08;0.63;;;;;;;10.64;nan;100213.31;4975141;28;20038;-85
2022/12/30 11:01:13;;;;;;;1.25;0.57;;;;;;;10.77;nan;100213.69;4974439;28;20039;-85
2022/12/30 11:03:44;;;;;;;1.38;0.60;;;;;;;10.84;nan;100216.50;4974796;28;20046;-85
2022/12/30 11:06:36;;;;;;;2.93;0.70;;;;;;;10.96;nan;100206.44;4972886;28;20046;-85
2022/12/30 11:09:11;;;;;;;2.40;0.95;;;;;;;10.98;nan;100201.81;4973639;28;20065;-85
2022/12/30 11:14:42;;;;;;;3.95;0.98;;;;;;;11.07;nan;100198.22;4974275;28;20046;-85
2022/12/30 11:17:31;;;;;;;1.95;0.80;;;;;;;11.10;nan;100195.22;4968070;28;20089;-85
2022/12/30 11:20:07;;;;;;;2.15;0.80;;;;;;;11.17;nan;100198.88;4973019;28;20073;-85
2022/12/30 11:22:32;;;;;;;2.45;1.05;;;;;;;11.17;nan;100196.22;4977088;28;20073;-84
2022/12/30 11:25:14;;;;;;;2.80;0.82;;;;;;;11.24;nan;100188.47;4974963;28;20059;-85
2022/12/30 11:28:01;;;;;;;2.95;1.00;;;;;;;11.17;nan;100187.47;4973700;28;20551;-85
2022/12/30 11:30:32;;;;;;;3.22;1.20;;;;;;;11.14;nan;100185.16;4971489;28;20086;-84
2022/12/30 11:33:01;;;;;;;2.20;0.77;;;;;;;11.11;nan;100188.97;4972423;28;20039;-85
2022/12/30 11:35:45;;;;;;;2.28;0.80;;;;;;;11.07;nan;100184.16;4969673;28;20035;-85
2022/12/30 11:38:32;;;;;;;1.52;0.70;;;;;;;11.04;nan;100180.03;4970124;28;20062;-84
2022/12/30 11:41:17;;;;;;;1.60;0.70;;;;;;;10.95;nan;100178.34;4971696;28;20050;-85
2022/12/30 11:43:48;;;;;;;1.77;0.70;;;;;;;10.98;nan;100172.72;4969733;28;20062;-85
2022/12/30 11:46:18;;;;;;;;;;;;;;;10.95;nan;100173.06;4971239;28;20027;-85
2022/12/30 11:48:49;;;;;;;3.30;1.00;;;;;;;10.89;nan;100163.13;4974551;28;19917;-85
2022/12/30 11:51:21;;;;;;;2.75;0.80;;;;;;;10.84;nan;100153.88;4970581;28;20099;-85
2022/12/30 11:53:49;;;;;;;1.98;0.77;;;;;;;10.87;nan;100149.22;4970582;28;20049;-85
2022/12/30 11:56:23;;;;;;;1.80;0.95;;;;;;;10.77;nan;100137.00;4975448;28;20102;-85
2022/12/30 11:58:49;;;;;;;3.38;0.80;;;;;;;10.72;nan;100126.06;4974103;28;20043;-85
2022/12/30 12:01:14;;;;;;;3.58;0.93;;;;;;;10.73;nan;100111.03;4974893;28;20038;-85
2022/12/30 12:03:53;;;;;;;2.78;0.80;;;;;;;10.75;nan;100086.09;4972824;28;20130;-85
2022/12/30 12:06:18;;;;;;;3.83;0.90;;;;;;;10.72;nan;100088.22;4980418;28;20031;-84
2022/12/30 12:09:08;;;;;;;1.80;0.70;;;;;;;10.71;nan;100074.16;4981420;28;20034;-84
2022/12/30 12:11:41;;;;;;;2.63;0.90;;;;;;;10.75;nan;100072.88;4975955;28;20556;-84
2022/12/30 12:14:17;;;;;;;5.10;2.42;;;;;;;10.67;nan;100078.13;4979331;28;20035;-85
2022/12/30 12:17:01;;;;;;;3.42;2.00;;;;;;;10.60;nan;100075.28;4972282;28;20047;-84
2022/12/30 12:19:39;;;;;;;2.63;1.00;;;;;;;10.61;nan;100078.78;4996205;28;20031;-85
2022/12/30 12:22:16;;;;;;;2.67;0.88;;;;;;;10.56;nan;100086.38;4979699;28;20035;-85
2022/12/30 12:24:46;;;;;;;2.55;0.90;;;;;;;10.58;nan;100084.38;4981647;28;20047;-84
2022/12/30 12:27:17;;;;;;;2.83;1.00;;;;;;;10.56;nan;100075.81;4982452;28;20038;-84
2022/12/30 12:29:43;;;;;;;2.30;1.02;;;;;;;10.49;nan;100064.25;4979464;28;20532;-84
2022/12/30 12:32:25;;;;;;;2.05;0.65;;;;;;;10.52;nan;100059.44;4980897;28;20031;-86
2022/12/30 12:35:28;;;;;;;2.58;0.90;;;;;;;10.58;nan;100068.53;4982093;28;20046;-84
2022/12/30 12:38:17;;;;;;;2.72;0.98;;;;;;;10.57;nan;100058.94;4968173;28;20047;-85
2022/12/30 12:41:22;;;;;;;1.73;0.80;;;;;;;10.60;nan;100067.38;4974813;28;20050;-85
2022/12/30 12:43:53;;;;;;;2.70;1.00;;;;;;;10.62;nan;100048.69;4981465;28;20039;-85
2022/12/30 12:46:56;;;;;;;2.17;0.90;;;;;;;10.65;nan;100047.53;4979993;28;20031;-85
2022/12/30 12:49:27;;;;;;;1.40;0.70;;;;;;;10.70;nan;100045.22;4980232;28;20399;-85
2022/12/30 12:51:55;;;;;;;2.33;0.80;;;;;;;10.67;nan;100045.56;4980740;28;20046;-85
2022/12/30 12:54:46;;;;;;;4.72;0.90;;;;;;;10.67;nan;100014.66;4992122;28;20031;-85